createdAt,value
2022-08-17T00:01:52.805Z,18.87
2022-08-17T00:04:24.500Z,18.86
2022-08-17T00:06:54.360Z,18.86
2022-08-17T00:09:24.271Z,18.87
2022-08-17T00:12:40.832Z,18.86
2022-08-17T00:14:45.050Z,18.87
2022-08-17T00:17:14.653Z,18.86
2022-08-17T00:19:44.398Z,18.85
2022-08-17T00:22:31.531Z,18.84
2022-08-17T00:25:06.701Z,18.82
2022-08-17T00:27:37.139Z,18.82
2022-08-17T00:30:11.053Z,18.81
2022-08-17T00:33:15.525Z,18.79
2022-08-17T00:35:31.944Z,18.75
2022-08-17T00:38:03.853Z,18.68
2022-08-17T00:40:44.312Z,18.65
2022-08-17T00:43:19.759Z,18.62
2022-08-17T00:45:49.963Z,18.61
2022-08-17T00:48:30.007Z,18.63
2022-08-17T00:51:07.042Z,18.65
2022-08-17T00:53:41.602Z,18.65
2022-08-17T00:56:15.783Z,18.66
2022-08-17T00:58:46.093Z,18.65
2022-08-17T01:01:21.747Z,18.66
2022-08-17T01:03:55.633Z,18.65
2022-08-17T01:06:29.890Z,18.64
2022-08-17T01:09:01.427Z,18.61
2022-08-17T01:11:35.019Z,18.59
2022-08-17T01:14:05.139Z,18.57
2022-08-17T01:16:34.982Z,18.52
2022-08-17T01:19:11.185Z,18.50
2022-08-17T01:21:47.547Z,18.49
2022-08-17T01:24:17.310Z,18.49
2022-08-17T01:26:47.663Z,18.50
2022-08-17T01:29:20.912Z,18.49
2022-08-17T01:31:54.233Z,18.46
2022-08-17T01:34:24.661Z,18.40
2022-08-17T01:37:05.070Z,18.27
2022-08-17T01:39:39.161Z,18.28
2022-08-17T01:42:16.123Z,18.25
2022-08-17T01:44:46.491Z,18.22
2022-08-17T01:47:16.163Z,18.20
2022-08-17T01:49:47.840Z,18.20
2022-08-17T01:52:18.401Z,18.19
2022-08-17T01:54:49.984Z,18.18
2022-08-17T01:57:19.698Z,18.16
2022-08-17T01:59:50.602Z,18.14
2022-08-17T02:02:30.975Z,18.14
2022-08-17T02:05:01.170Z,18.12
2022-08-17T02:07:31.072Z,18.12
2022-08-17T02:10:00.761Z,18.11
2022-08-17T02:12:39.340Z,18.08
2022-08-17T02:15:12.092Z,18.05
2022-08-17T02:17:42.099Z,18.04
2022-08-17T02:20:12.412Z,18.01
2022-08-17T02:22:46.511Z,17.94
2022-08-17T02:25:19.044Z,17.90
2022-08-17T02:27:52.092Z,17.87
2022-08-17T02:30:59.443Z,17.90
2022-08-17T02:33:12.617Z,17.91
2022-08-17T02:35:42.782Z,17.92
2022-08-17T02:38:12.663Z,17.94
2022-08-17T02:40:42.390Z,17.94
2022-08-17T02:43:15.182Z,17.95
2022-08-17T02:45:45.531Z,17.95
2022-08-17T02:48:15.692Z,17.96
2022-08-17T02:51:01.201Z,17.90
2022-08-17T02:53:35.926Z,17.84
2022-08-17T02:56:06.641Z,17.80
2022-08-17T02:58:36.494Z,17.75
2022-08-17T03:01:08.353Z,17.72
2022-08-17T03:03:39.874Z,17.69
2022-08-17T03:06:10.721Z,17.65
2022-08-17T03:08:40.464Z,17.63
2022-08-17T03:11:10.403Z,17.62
2022-08-17T03:13:40.274Z,17.61
2022-08-17T03:16:10.201Z,17.61
2022-08-17T03:18:39.851Z,17.60
2022-08-17T03:21:09.631Z,17.56
2022-08-17T03:23:40.813Z,17.49
2022-08-17T03:26:12.377Z,17.49
2022-08-17T03:28:45.376Z,17.50
2022-08-17T03:31:15.142Z,17.51
2022-08-17T03:33:44.909Z,17.50
2022-08-17T03:36:14.788Z,17.50
2022-08-17T03:38:44.301Z,17.51
2022-08-17T03:41:14.798Z,17.53
2022-08-17T03:43:44.472Z,17.55
2022-08-17T03:46:34.215Z,17.57
2022-08-17T03:49:25.173Z,17.57
2022-08-17T03:52:13.570Z,17.56
2022-08-17T03:55:02.638Z,17.55
2022-08-17T03:57:33.202Z,17.54
2022-08-17T04:00:04.710Z,17.54
2022-08-17T04:02:43.692Z,17.57
2022-08-17T04:05:14.623Z,17.59
2022-08-17T04:07:44.538Z,17.63
2022-08-17T04:10:14.422Z,17.67
2022-08-17T04:12:49.759Z,17.70
2022-08-17T04:15:19.942Z,17.74
2022-08-17T04:17:50.029Z,17.79
2022-08-17T04:20:23.111Z,17.83
2022-08-17T04:23:02.343Z,17.89
2022-08-17T04:25:34.431Z,17.92
2022-08-17T04:28:05.801Z,17.96
2022-08-17T04:30:46.363Z,18.02
2022-08-17T04:33:18.503Z,18.07
2022-08-17T04:35:50.535Z,18.14
2022-08-17T04:38:22.440Z,18.21
2022-08-17T04:41:18.969Z,18.28
2022-08-17T04:43:50.322Z,18.37
2022-08-17T04:46:22.500Z,18.46
2022-08-17T04:48:54.622Z,18.56
2022-08-17T04:51:27.702Z,18.66
2022-08-17T04:54:00.083Z,18.76
2022-08-17T04:56:31.461Z,18.87
2022-08-17T04:59:05.449Z,19.01
2022-08-17T05:01:39.958Z,19.12
2022-08-17T05:04:33.474Z,19.24
2022-08-17T05:07:04.687Z,19.42
2022-08-17T05:09:34.383Z,19.60
2022-08-17T05:12:05.667Z,19.84
2022-08-17T05:14:35.393Z,20.02
2022-08-17T05:17:07.051Z,20.20
2022-08-17T05:19:38.013Z,20.39
2022-08-17T05:22:10.191Z,20.53
2022-08-17T05:24:43.604Z,20.67
2022-08-17T05:27:23.646Z,20.82
2022-08-17T05:29:53.721Z,20.98
2022-08-17T05:32:39.625Z,21.15
2022-08-17T05:35:10.942Z,21.34
2022-08-17T05:37:40.733Z,21.53
2022-08-17T05:40:12.149Z,21.72
2022-08-17T05:42:42.440Z,21.92
2022-08-17T05:45:16.163Z,22.09
2022-08-17T05:47:58.398Z,22.30
2022-08-17T05:50:43.151Z,22.47
2022-08-17T05:53:36.441Z,22.61
2022-08-17T05:56:48.247Z,22.83
2022-08-17T05:59:32.317Z,23.02
2022-08-17T06:02:27.543Z,23.06
2022-08-17T06:05:22.025Z,23.28
2022-08-17T06:08:05.593Z,23.46
2022-08-17T06:10:48.984Z,23.62
2022-08-17T06:13:57.258Z,23.71
2022-08-17T06:16:36.511Z,23.92
2022-08-17T06:19:12.009Z,24.06
2022-08-17T06:21:45.143Z,24.16
2022-08-17T06:24:28.355Z,24.28
2022-08-17T06:27:01.344Z,24.39
2022-08-17T06:29:41.752Z,24.35
2022-08-17T06:32:14.215Z,24.49
2022-08-17T06:34:45.876Z,24.66
2022-08-17T06:37:32.034Z,24.78
2022-08-17T06:40:20.141Z,24.88
2022-08-17T06:43:06.657Z,25.06
2022-08-17T06:45:42.221Z,25.22
2022-08-17T06:48:23.913Z,25.29
2022-08-17T06:50:59.673Z,25.39
2022-08-17T06:53:35.551Z,25.57
2022-08-17T06:56:08.754Z,25.71
2022-08-17T06:58:42.902Z,25.83
2022-08-17T07:01:17.717Z,25.96
2022-08-17T07:03:54.336Z,26.02
2022-08-17T07:06:27.023Z,26.06
2022-08-17T07:09:01.471Z,26.12
2022-08-17T07:11:38.182Z,26.21
2022-08-17T07:14:19.190Z,26.37
2022-08-17T07:16:54.213Z,26.43
2022-08-17T07:19:28.143Z,26.45
2022-08-17T07:22:08.450Z,26.60
2022-08-17T07:24:47.024Z,26.50
2022-08-17T07:27:21.254Z,26.57
2022-08-17T07:29:56.223Z,26.66
2022-08-17T07:32:31.621Z,26.66
2022-08-17T07:35:08.192Z,26.82
2022-08-17T07:37:42.298Z,26.81
2022-08-17T07:40:20.177Z,26.86
2022-08-17T07:43:21.640Z,26.97
2022-08-17T07:46:18.209Z,27.06
2022-08-17T07:48:50.974Z,27.28
2022-08-17T07:51:21.983Z,27.38
2022-08-17T07:53:52.445Z,27.47
2022-08-17T07:56:43.913Z,27.63
2022-08-17T07:59:17.773Z,27.74
2022-08-17T08:02:01.983Z,27.81
2022-08-17T08:04:59.262Z,27.87
2022-08-17T08:07:29.301Z,28.05
2022-08-17T08:10:08.083Z,28.07
2022-08-17T08:12:40.121Z,28.18
2022-08-17T08:15:18.415Z,28.28
2022-08-17T08:17:51.916Z,28.33
2022-08-17T08:20:51.907Z,28.39
2022-08-17T08:23:37.765Z,28.57
2022-08-17T08:26:25.982Z,28.63
2022-08-17T08:29:14.472Z,28.73
2022-08-17T08:31:58.999Z,28.79
2022-08-17T08:35:00.735Z,28.70
2022-08-17T08:37:42.696Z,28.73
2022-08-17T08:40:29.491Z,28.85
2022-08-17T08:43:12.234Z,28.96
2022-08-17T08:45:49.181Z,28.94
2022-08-17T08:48:56.589Z,29.08
2022-08-17T08:51:38.044Z,29.22
2022-08-17T08:54:26.661Z,29.35
2022-08-17T09:00:14.983Z,29.50
2022-08-17T09:03:20.862Z,29.45
2022-08-17T09:06:32.187Z,29.65
2022-08-17T09:09:15.978Z,29.62
2022-08-17T09:12:02.320Z,29.65
2022-08-17T09:14:47.133Z,29.69
2022-08-17T09:17:21.275Z,29.91
2022-08-17T09:19:56.393Z,29.91
2022-08-17T09:22:34.383Z,29.94
2022-08-17T09:25:10.823Z,30.01
2022-08-17T09:27:53.260Z,30.03
2022-08-17T09:30:24.884Z,30.09
2022-08-17T09:33:00.193Z,30.07
2022-08-17T09:35:37.538Z,30.10
2022-08-17T09:38:21.368Z,30.14
2022-08-17T09:40:57.842Z,30.19
2022-08-17T09:43:38.091Z,30.22
2022-08-17T09:46:14.081Z,30.39
2022-08-17T09:48:50.676Z,30.49
2022-08-17T09:51:26.863Z,30.31
2022-08-17T09:54:09.479Z,30.40
2022-08-17T09:57:28.097Z,30.48
2022-08-17T10:00:07.323Z,30.44
2022-08-17T10:03:01.600Z,30.59
2022-08-17T10:05:37.702Z,30.57
2022-08-17T10:08:16.017Z,30.52
2022-08-17T10:10:58.443Z,30.68
2022-08-17T10:13:38.402Z,30.71
2022-08-17T10:16:22.321Z,30.65
2022-08-17T10:19:03.505Z,30.72
2022-08-17T10:22:01.252Z,30.89
2022-08-17T10:25:13.527Z,30.66
2022-08-17T10:27:57.963Z,30.46
2022-08-17T10:30:32.152Z,30.36
2022-08-17T10:33:06.484Z,30.53
2022-08-17T10:35:49.119Z,30.37
2022-08-17T10:38:26.602Z,30.24
2022-08-17T10:41:01.889Z,29.96
2022-08-17T10:43:41.351Z,30.06
2022-08-17T10:46:30.831Z,30.08
2022-08-17T10:49:24.959Z,30.28
2022-08-17T10:51:56.862Z,30.39
2022-08-17T10:54:46.812Z,30.55
2022-08-17T10:57:38.570Z,30.54
2022-08-17T11:00:15.891Z,30.55
2022-08-17T11:02:51.558Z,30.46
2022-08-17T11:05:43.417Z,30.29
2022-08-17T11:08:46.203Z,30.29
2022-08-17T11:11:40.542Z,30.31
2022-08-17T11:14:27.462Z,30.43
2022-08-17T11:17:15.454Z,30.43
2022-08-17T11:20:16.006Z,30.61
2022-08-17T11:23:17.996Z,30.77
2022-08-17T11:25:52.933Z,30.91
2022-08-17T11:28:27.682Z,30.99
2022-08-17T11:31:03.450Z,30.94
2022-08-17T11:34:03.060Z,31.10
2022-08-17T11:37:12.911Z,31.14
2022-08-17T11:40:25.741Z,31.18
2022-08-17T11:43:25.367Z,31.15
2022-08-17T11:46:13.091Z,31.23
2022-08-17T11:49:07.796Z,31.27
2022-08-17T11:52:12.163Z,31.17
2022-08-17T11:54:46.141Z,31.20
2022-08-17T11:58:01.190Z,31.19
2022-08-17T12:00:58.143Z,31.29
2022-08-17T12:03:55.501Z,31.33
2022-08-17T12:06:50.900Z,31.30
2022-08-17T12:09:24.818Z,31.33
2022-08-17T12:12:12.538Z,31.35
2022-08-17T12:17:52.014Z,31.38
2022-08-17T12:20:27.500Z,31.39
2022-08-17T12:23:04.481Z,31.43
2022-08-17T12:25:39.301Z,31.49
2022-08-17T12:28:22.415Z,31.38
2022-08-17T12:30:54.082Z,31.45
2022-08-17T12:33:28.620Z,31.48
2022-08-17T12:36:02.481Z,31.44
2022-08-17T12:38:34.079Z,31.45
2022-08-17T12:41:25.870Z,31.40
2022-08-17T12:44:01.682Z,31.35
2022-08-17T12:46:35.515Z,31.34
2022-08-17T12:49:16.223Z,31.38
2022-08-17T12:51:48.433Z,31.41
2022-08-17T12:54:30.035Z,31.49
2022-08-17T12:57:06.182Z,31.36
2022-08-17T12:59:40.049Z,31.52
2022-08-17T13:02:21.340Z,31.48
2022-08-17T13:04:53.289Z,31.59
2022-08-17T13:07:35.860Z,31.63
2022-08-17T13:10:07.481Z,31.62
2022-08-17T13:12:39.394Z,31.57
2022-08-17T13:15:17.290Z,31.64
2022-08-17T13:17:57.570Z,31.53
2022-08-17T13:20:27.258Z,31.60
2022-08-17T13:23:02.704Z,31.65
2022-08-17T13:25:33.300Z,31.67
2022-08-17T13:28:03.512Z,31.67
2022-08-17T13:30:33.602Z,31.66
2022-08-17T13:33:23.435Z,31.78
2022-08-17T13:36:13.440Z,31.88
2022-08-17T13:38:52.403Z,31.97
2022-08-17T13:41:33.696Z,31.88
2022-08-17T13:44:32.789Z,31.65
2022-08-17T13:47:07.070Z,31.41
2022-08-17T13:49:48.433Z,31.23
2022-08-17T13:52:40.256Z,31.05
2022-08-17T13:55:19.273Z,31.06
2022-08-17T13:58:03.485Z,31.08
2022-08-17T14:00:39.030Z,31.10
2022-08-17T14:03:08.795Z,31.18
2022-08-17T14:05:39.971Z,31.24
2022-08-17T14:08:14.448Z,31.27
2022-08-17T14:10:45.450Z,31.35
2022-08-17T14:13:16.692Z,31.39
2022-08-17T14:15:56.154Z,31.52
2022-08-17T14:18:35.699Z,31.53
2022-08-17T14:21:19.092Z,31.61
2022-08-17T14:23:54.974Z,31.75
2022-08-17T14:26:26.319Z,31.85
2022-08-17T14:28:57.109Z,31.79
2022-08-17T14:31:28.419Z,31.38
2022-08-17T14:33:59.843Z,31.24
2022-08-17T14:36:31.304Z,31.16
2022-08-17T14:39:01.861Z,30.90
2022-08-17T14:41:32.932Z,30.69
2022-08-17T14:44:04.526Z,30.52
2022-08-17T14:46:35.491Z,30.46
2022-08-17T14:49:05.557Z,30.26
2022-08-17T14:51:35.670Z,30.00
2022-08-17T14:54:33.899Z,29.76
2022-08-17T14:57:24.645Z,29.63
2022-08-17T15:00:00.272Z,29.58
2022-08-17T15:02:31.340Z,29.49
2022-08-17T15:05:03.074Z,29.43
2022-08-17T15:07:32.704Z,29.30
2022-08-17T15:10:02.862Z,29.14
2022-08-17T15:12:34.625Z,29.08
2022-08-17T15:15:08.674Z,28.98
2022-08-17T15:17:43.971Z,28.95
2022-08-17T15:20:27.191Z,28.99
2022-08-17T15:22:56.972Z,29.05
2022-08-17T15:25:28.113Z,28.82
2022-08-17T15:27:57.843Z,28.76
2022-08-17T15:30:28.321Z,29.05
2022-08-17T15:33:00.587Z,29.22
2022-08-17T15:35:31.048Z,29.24
2022-08-17T15:38:10.695Z,29.26
2022-08-17T15:40:43.758Z,29.20
2022-08-17T15:43:15.783Z,29.23
2022-08-17T15:45:58.620Z,29.11
2022-08-17T15:48:41.485Z,29.08
2022-08-17T15:51:13.907Z,29.00
2022-08-17T15:53:45.883Z,28.90
2022-08-17T15:56:15.956Z,28.93
2022-08-17T15:58:46.901Z,28.88
2022-08-17T16:01:42.288Z,28.82
2022-08-17T16:04:12.179Z,28.78
2022-08-17T16:06:59.575Z,28.82
2022-08-17T16:09:29.450Z,28.80
2022-08-17T16:12:08.089Z,28.79
2022-08-17T16:14:37.773Z,28.76
2022-08-17T16:17:38.784Z,28.61
2022-08-17T16:19:59.851Z,28.59
2022-08-17T16:22:35.294Z,28.63
2022-08-17T16:25:08.852Z,28.60
2022-08-17T16:27:39.062Z,28.48
2022-08-17T16:30:16.925Z,28.50
2022-08-17T16:32:48.505Z,28.47
2022-08-17T16:35:20.880Z,28.43
2022-08-17T16:37:53.971Z,28.49
2022-08-17T16:40:25.603Z,28.50
2022-08-17T16:42:57.687Z,28.50
2022-08-17T16:45:39.602Z,28.41
2022-08-17T16:48:09.953Z,28.28
2022-08-17T16:50:40.142Z,28.10
2022-08-17T16:53:16.051Z,27.89
2022-08-17T16:55:47.692Z,27.69
2022-08-17T16:58:17.971Z,27.63
2022-08-17T17:00:48.381Z,27.60
2022-08-17T17:03:22.092Z,27.59
2022-08-17T17:06:03.883Z,27.47
2022-08-17T17:08:44.414Z,27.34
2022-08-17T17:11:18.851Z,27.24
2022-08-17T17:13:54.224Z,27.15
2022-08-17T17:16:35.465Z,27.08
2022-08-17T17:19:11.579Z,27.05
2022-08-17T17:21:51.481Z,27.04
2022-08-17T17:24:32.762Z,26.95
2022-08-17T17:27:17.352Z,26.81
2022-08-17T17:29:57.739Z,26.67
2022-08-17T17:32:37.421Z,26.60
2022-08-17T17:35:12.401Z,26.49
2022-08-17T17:37:44.541Z,26.42
2022-08-17T17:40:22.601Z,26.35
2022-08-17T17:42:55.322Z,26.23
2022-08-17T17:45:30.951Z,26.09
2022-08-17T17:48:00.801Z,25.88
2022-08-17T17:50:36.943Z,25.72
2022-08-17T17:53:11.061Z,25.64
2022-08-17T17:55:52.062Z,25.58
2022-08-17T17:58:36.273Z,25.51
2022-08-17T18:01:24.398Z,25.44
2022-08-17T18:04:17.010Z,25.39
2022-08-17T18:07:03.375Z,25.28
2022-08-17T18:10:01.383Z,25.22
2022-08-17T18:12:44.342Z,25.14
2022-08-17T18:15:29.439Z,25.08
2022-08-17T18:18:31.593Z,24.99
2022-08-17T18:21:05.812Z,24.87
2022-08-17T18:23:37.211Z,24.72
2022-08-17T18:26:09.221Z,24.66
2022-08-17T18:28:43.941Z,24.58
2022-08-17T18:31:19.651Z,24.49
2022-08-17T18:33:54.185Z,24.39
2022-08-17T18:36:32.464Z,24.28
2022-08-17T18:39:18.251Z,24.14
2022-08-17T18:41:52.344Z,24.01
2022-08-17T18:44:29.237Z,23.95
2022-08-17T18:47:16.148Z,23.92
2022-08-17T18:49:49.952Z,23.89
2022-08-17T18:52:27.970Z,23.87
2022-08-17T18:55:13.505Z,23.82
2022-08-17T18:57:48.203Z,23.74
2022-08-17T19:00:33.492Z,23.66
2022-08-17T19:03:07.477Z,23.61
2022-08-17T19:05:46.969Z,23.59
2022-08-17T19:08:23.875Z,23.56
2022-08-17T19:10:58.619Z,23.50
2022-08-17T19:13:32.053Z,23.38
2022-08-17T19:16:14.177Z,23.27
2022-08-17T19:18:49.604Z,23.10
2022-08-17T19:21:23.384Z,23.07
2022-08-17T19:23:58.728Z,23.02
2022-08-17T19:26:54.896Z,22.95
2022-08-17T19:29:29.992Z,22.88
2022-08-17T19:32:00.400Z,22.81
2022-08-17T19:34:33.906Z,22.73
2022-08-17T19:37:17.395Z,22.73
2022-08-17T19:39:55.720Z,22.70
2022-08-17T19:42:37.062Z,22.69
2022-08-17T19:45:14.276Z,22.62
2022-08-17T19:47:56.464Z,22.55
2022-08-17T19:50:37.950Z,22.53
2022-08-17T19:53:17.385Z,22.48
2022-08-17T19:55:54.155Z,22.41
2022-08-17T19:58:34.112Z,22.38
2022-08-17T20:01:10.721Z,22.37
2022-08-17T20:03:51.399Z,22.35
2022-08-17T20:06:23.616Z,22.31
2022-08-17T20:09:04.675Z,22.22
2022-08-17T20:11:40.913Z,22.19
2022-08-17T20:14:15.334Z,22.17
2022-08-17T20:16:45.368Z,22.15
2022-08-17T20:19:23.134Z,22.15
2022-08-17T20:21:58.444Z,22.13
2022-08-17T20:24:36.041Z,22.09
2022-08-17T20:27:21.656Z,22.04
2022-08-17T20:30:10.074Z,21.98
2022-08-17T20:32:54.972Z,21.92
2022-08-17T20:35:30.792Z,21.86
2022-08-17T20:38:03.082Z,21.84
2022-08-17T20:40:38.469Z,21.85
2022-08-17T20:43:45.851Z,21.88
2022-08-17T20:46:27.809Z,21.87
2022-08-17T20:49:14.627Z,21.87
2022-08-17T20:52:01.489Z,21.89
2022-08-17T20:54:52.739Z,21.90
2022-08-17T20:57:46.104Z,21.87
2022-08-17T21:00:34.669Z,21.80
2022-08-17T21:03:50.542Z,21.68
2022-08-17T21:06:24.112Z,21.64
2022-08-17T21:09:21.481Z,21.53
2022-08-17T21:12:04.673Z,21.43
2022-08-17T21:14:55.990Z,21.32
2022-08-17T21:17:41.593Z,21.29
2022-08-17T21:20:34.783Z,21.28
2022-08-17T21:23:26.722Z,21.25
2022-08-17T21:26:28.073Z,21.14
2022-08-17T21:29:31.396Z,21.09
2022-08-17T21:32:24.640Z,21.04
2022-08-17T21:35:24.471Z,20.96
2022-08-17T21:38:00.076Z,20.88
2022-08-17T21:40:33.140Z,20.87
2022-08-17T21:43:17.085Z,20.90
2022-08-17T21:45:57.232Z,20.88
2022-08-17T21:48:28.523Z,20.88
2022-08-17T21:51:01.544Z,20.94
2022-08-17T21:53:38.758Z,21.01
2022-08-17T21:56:11.110Z,21.06
2022-08-17T21:58:48.316Z,21.12
2022-08-17T22:01:25.453Z,21.17
2022-08-17T22:04:18.943Z,21.19
2022-08-17T22:06:52.333Z,21.21
2022-08-17T22:09:28.911Z,21.22
2022-08-17T22:12:04.822Z,21.24
2022-08-17T22:14:53.003Z,21.24
2022-08-17T22:17:26.309Z,21.23
2022-08-17T22:19:59.694Z,21.24
2022-08-17T22:22:56.071Z,21.24
2022-08-17T22:25:29.122Z,21.24
2022-08-17T22:27:59.927Z,21.25
2022-08-17T22:30:38.428Z,21.20
2022-08-17T22:33:37.153Z,21.22
2022-08-17T22:36:24.817Z,21.23
2022-08-17T22:38:57.044Z,21.13
2022-08-17T22:41:43.032Z,21.01
2022-08-17T22:44:23.863Z,20.99
2022-08-17T22:47:03.189Z,21.02
2022-08-17T22:49:54.235Z,21.02
2022-08-17T22:52:32.516Z,20.97
2022-08-17T22:55:24.564Z,20.91
2022-08-17T22:58:12.484Z,20.78
2022-08-17T23:00:44.409Z,20.66
2022-08-17T23:03:18.826Z,20.53
2022-08-17T23:06:03.064Z,20.43
2022-08-17T23:08:35.294Z,20.36
2022-08-17T23:11:07.224Z,20.21
2022-08-17T23:13:38.100Z,20.08
2022-08-17T23:16:07.975Z,20.08
2022-08-17T23:18:37.502Z,20.06
2022-08-17T23:21:07.603Z,19.97
2022-08-17T23:23:39.125Z,19.83
2022-08-17T23:26:10.934Z,19.84
2022-08-17T23:28:43.464Z,19.94
2022-08-17T23:31:16.475Z,20.01
2022-08-17T23:33:47.386Z,20.17
2022-08-17T23:36:17.656Z,20.16
2022-08-17T23:38:48.046Z,20.16
2022-08-17T23:41:20.395Z,20.22
2022-08-17T23:43:52.085Z,20.17
2022-08-17T23:46:22.092Z,20.34
2022-08-17T23:48:53.401Z,20.55
2022-08-17T23:51:26.335Z,20.61
2022-08-17T23:54:07.998Z,20.55
2022-08-17T23:56:43.593Z,20.54
2022-08-17T23:59:13.936Z,20.52
